createdAt,value
2018-08-20T00:01:01.800Z,5.78
2018-08-20T00:03:42.465Z,5.20
2018-08-20T00:06:14.008Z,4.80
2018-08-20T00:08:45.459Z,5.50
2018-08-20T00:11:17.233Z,5.85
2018-08-20T00:13:48.553Z,5.10
2018-08-20T00:16:19.740Z,5.75
2018-08-20T00:18:51.136Z,5.20
2018-08-20T00:21:22.518Z,5.33
2018-08-20T00:23:53.950Z,5.05
2018-08-20T00:26:25.822Z,5.20
2018-08-20T00:28:57.359Z,5.28
2018-08-20T00:31:28.881Z,5.42
2018-08-20T00:34:00.163Z,4.42
2018-08-20T00:36:31.460Z,5.05
2018-08-20T00:39:02.801Z,5.12
2018-08-20T00:41:34.138Z,4.85
2018-08-20T00:44:09.849Z,4.92
2018-08-20T00:46:41.696Z,5.10
2018-08-20T00:49:13.928Z,5.60
2018-08-20T00:51:45.713Z,5.58
2018-08-20T00:54:16.941Z,5.22
2018-08-20T00:56:48.369Z,5.25
2018-08-20T00:59:19.783Z,5.22
2018-08-20T01:01:51.157Z,6.10
2018-08-20T01:04:22.688Z,5.50
2018-08-20T01:06:54.139Z,5.50
2018-08-20T01:09:25.662Z,5.78
2018-08-20T01:11:57.064Z,6.45
2018-08-20T01:14:28.608Z,5.62
2018-08-20T01:16:59.857Z,5.80
2018-08-20T01:19:31.354Z,5.00
2018-08-20T01:22:02.694Z,5.17
2018-08-20T01:24:34.215Z,6.12
2018-08-20T01:27:05.779Z,5.50
2018-08-20T01:29:36.912Z,5.35
2018-08-20T01:32:08.354Z,5.37
2018-08-20T01:34:39.680Z,5.20
2018-08-20T01:37:11.349Z,5.42
2018-08-20T01:39:42.664Z,5.00
2018-08-20T01:42:18.585Z,5.05
2018-08-20T01:44:49.787Z,4.97
2018-08-20T01:47:21.427Z,5.15
2018-08-20T01:49:52.681Z,5.22
2018-08-20T01:52:24.492Z,4.78
2018-08-20T01:54:55.799Z,5.90
2018-08-20T01:57:27.052Z,5.28
2018-08-20T01:59:58.369Z,5.28
2018-08-20T02:02:30.306Z,5.47
2018-08-20T02:05:02.296Z,5.70
2018-08-20T02:07:33.867Z,5.28
2018-08-20T02:10:05.590Z,5.25
2018-08-20T02:12:36.788Z,5.10
2018-08-20T02:15:08.155Z,5.75
2018-08-20T02:17:39.799Z,5.35
2018-08-20T02:20:11.327Z,5.83
2018-08-20T02:22:42.491Z,5.28
2018-08-20T02:25:14.181Z,5.60
2018-08-20T02:27:45.779Z,6.05
2018-08-20T02:30:17.126Z,5.85
2018-08-20T02:32:48.300Z,5.95
2018-08-20T02:35:19.608Z,6.05
2018-08-20T02:37:51.271Z,5.75
2018-08-20T02:40:22.994Z,6.33
2018-08-20T02:42:54.470Z,6.37
2018-08-20T02:45:25.914Z,5.70
2018-08-20T02:47:57.264Z,5.58
2018-08-20T02:50:29.018Z,6.33
2018-08-20T02:53:00.501Z,6.30
2018-08-20T02:55:31.728Z,5.95
2018-08-20T02:58:03.291Z,5.80
2018-08-20T03:00:34.819Z,6.55
2018-08-20T03:03:06.389Z,5.72
2018-08-20T03:05:38.184Z,6.40
2018-08-20T03:08:09.561Z,6.35
2018-08-20T03:10:40.803Z,5.90
2018-08-20T03:13:12.200Z,6.17
2018-08-20T03:15:43.623Z,5.87
2018-08-20T03:18:15.176Z,6.03
2018-08-20T03:20:47.270Z,6.00
2018-08-20T03:23:18.819Z,5.95
2018-08-20T03:25:50.316Z,6.67
2018-08-20T03:28:21.703Z,6.65
2018-08-20T03:30:52.920Z,6.17
2018-08-20T03:33:24.216Z,6.42
2018-08-20T03:35:55.730Z,6.20
2018-08-20T03:38:27.291Z,6.62
2018-08-20T03:40:58.846Z,6.65
2018-08-20T03:43:30.439Z,6.45
2018-08-20T03:46:02.142Z,6.08
2018-08-20T03:48:33.739Z,7.03
2018-08-20T03:51:05.098Z,7.00
2018-08-20T03:53:36.611Z,6.37
2018-08-20T03:56:08.037Z,6.70
2018-08-20T03:58:39.404Z,6.90
2018-08-20T04:01:10.918Z,7.22
2018-08-20T04:03:42.336Z,6.87
2018-08-20T04:06:13.719Z,7.70
2018-08-20T04:08:44.912Z,7.35
2018-08-20T04:11:16.456Z,7.15
2018-08-20T04:13:47.981Z,7.42
2018-08-20T04:16:19.216Z,6.95
2018-08-20T04:18:55.019Z,7.90
2018-08-20T04:21:26.384Z,6.33
2018-08-20T04:23:57.839Z,6.58
2018-08-20T04:26:29.284Z,6.60
2018-08-20T04:29:00.983Z,7.12
2018-08-20T04:31:32.280Z,6.67
2018-08-20T04:34:03.729Z,7.10
2018-08-20T04:36:35.298Z,7.33
2018-08-20T04:39:08.456Z,6.50
2018-08-20T04:41:40.126Z,6.17
2018-08-20T04:44:11.582Z,6.30
2018-08-20T04:46:42.865Z,7.17
2018-08-20T04:49:14.381Z,6.95
2018-08-20T04:51:45.721Z,7.40
2018-08-20T04:54:17.263Z,7.78
2018-08-20T04:56:48.867Z,7.65
2018-08-20T04:59:20.360Z,8.30
2018-08-20T05:01:51.818Z,7.67
2018-08-20T05:04:23.111Z,8.20
2018-08-20T05:06:54.541Z,8.10
2018-08-20T05:09:25.902Z,9.03
2018-08-20T05:11:57.524Z,8.23
2018-08-20T05:14:28.914Z,7.53
2018-08-20T05:17:00.152Z,7.17
2018-08-20T05:19:31.783Z,7.78
2018-08-20T05:22:03.215Z,7.03
2018-08-20T05:24:34.480Z,7.50
2018-08-20T05:27:06.196Z,7.80
2018-08-20T05:29:37.456Z,6.58
2018-08-20T05:32:08.986Z,7.70
2018-08-20T05:34:40.308Z,7.37
2018-08-20T05:37:11.624Z,7.20
2018-08-20T05:39:43.099Z,6.05
2018-08-20T05:42:14.792Z,6.42
2018-08-20T05:44:46.209Z,6.85
2018-08-20T05:47:17.441Z,8.15
2018-08-20T05:49:48.804Z,8.05
2018-08-20T05:52:20.275Z,7.83
2018-08-20T05:54:51.586Z,8.08
2018-08-20T05:57:23.011Z,8.88
2018-08-20T05:59:57.418Z,11.38
2018-08-20T06:02:28.991Z,10.68
2018-08-20T06:05:00.350Z,8.28
2018-08-20T06:07:31.709Z,8.90
2018-08-20T06:10:03.264Z,7.60
2018-08-20T06:12:35.211Z,7.33
2018-08-20T06:15:12.814Z,7.25
2018-08-20T06:17:44.441Z,7.60
2018-08-20T06:20:18.235Z,7.15
2018-08-20T06:22:49.547Z,6.67
2018-08-20T06:25:20.995Z,7.50
2018-08-20T06:27:52.682Z,7.05
2018-08-20T06:30:24.028Z,7.35
2018-08-20T06:32:55.518Z,6.62
2018-08-20T06:35:27.152Z,6.78
2018-08-20T06:37:58.622Z,7.08
2018-08-20T06:40:30.155Z,6.87
2018-08-20T06:43:01.526Z,7.05
2018-08-20T06:45:32.984Z,6.62
2018-08-20T06:48:04.483Z,6.50
2018-08-20T06:50:35.903Z,6.40
2018-08-20T06:53:07.535Z,6.67
2018-08-20T06:55:38.887Z,7.30
2018-08-20T06:58:10.851Z,8.55
2018-08-20T07:00:42.228Z,9.10
2018-08-20T07:03:13.512Z,7.20
2018-08-20T07:05:44.895Z,6.67
2018-08-20T07:08:16.415Z,8.10
2018-08-20T07:10:48.746Z,6.90
2018-08-20T07:13:27.973Z,6.90
2018-08-20T07:15:59.320Z,7.12
2018-08-20T07:18:30.821Z,6.85
2018-08-20T07:21:02.344Z,6.95
2018-08-20T07:23:33.710Z,6.50
2018-08-20T07:26:05.034Z,6.47
2018-08-20T07:28:36.348Z,6.83
2018-08-20T07:31:07.729Z,5.97
2018-08-20T07:33:39.097Z,6.75
2018-08-20T07:36:10.308Z,6.75
2018-08-20T07:38:41.878Z,6.55
2018-08-20T07:41:13.238Z,7.28
2018-08-20T07:43:44.753Z,6.40
2018-08-20T07:46:16.440Z,6.17
2018-08-20T07:48:48.192Z,6.60
2018-08-20T07:51:20.763Z,6.87
2018-08-20T07:53:51.952Z,6.40
2018-08-20T07:56:23.362Z,6.20
2018-08-20T07:58:54.871Z,6.12
2018-08-20T08:01:26.263Z,6.62
2018-08-20T08:03:57.755Z,6.70
2018-08-20T08:06:29.264Z,6.67
2018-08-20T08:09:00.676Z,7.03
2018-08-20T08:11:32.222Z,6.97
2018-08-20T08:14:03.704Z,7.87
2018-08-20T08:16:35.880Z,6.85
2018-08-20T08:19:07.789Z,7.67
2018-08-20T08:21:39.252Z,7.10
2018-08-20T08:24:10.894Z,7.85
2018-08-20T08:26:42.512Z,7.58
2018-08-20T08:29:13.934Z,7.20
2018-08-20T08:31:45.441Z,8.10
2018-08-20T08:34:16.800Z,7.17
2018-08-20T08:36:48.129Z,7.08
2018-08-20T08:39:19.422Z,7.15
2018-08-20T08:41:50.740Z,6.80
2018-08-20T08:44:22.203Z,7.17
2018-08-20T08:46:53.743Z,7.03
2018-08-20T08:49:24.913Z,7.58
2018-08-20T08:51:57.074Z,7.58
2018-08-20T08:54:28.647Z,6.87
2018-08-20T08:56:59.857Z,7.33
2018-08-20T08:59:31.526Z,6.72
2018-08-20T09:02:03.209Z,6.20
2018-08-20T09:04:34.616Z,6.40
2018-08-20T09:07:06.154Z,6.72
2018-08-20T09:09:37.635Z,6.67
2018-08-20T09:12:08.970Z,6.55
2018-08-20T09:14:40.428Z,7.33
2018-08-20T09:17:11.932Z,6.95
2018-08-20T09:19:43.428Z,7.40
2018-08-20T09:22:14.603Z,7.33
2018-08-20T09:24:46.295Z,6.80
2018-08-20T09:27:17.759Z,7.03
2018-08-20T09:29:49.249Z,6.35
2018-08-20T09:32:20.864Z,6.00
2018-08-20T09:34:52.134Z,6.40
2018-08-20T09:37:23.698Z,6.42
2018-08-20T09:39:54.682Z,7.65
2018-08-20T09:42:26.455Z,6.33
2018-08-20T09:44:58.671Z,6.20
2018-08-20T09:47:30.398Z,6.95
2018-08-20T09:50:01.915Z,6.10
2018-08-20T09:52:33.224Z,6.28
2018-08-20T09:55:04.891Z,6.65
2018-08-20T09:57:36.331Z,5.72
2018-08-20T10:00:12.124Z,6.45
2018-08-20T10:02:43.706Z,5.95
2018-08-20T10:05:15.324Z,6.72
2018-08-20T10:07:47.114Z,5.75
2018-08-20T10:10:18.714Z,6.20
2018-08-20T10:12:49.960Z,6.37
2018-08-20T10:15:21.375Z,6.47
2018-08-20T10:17:52.847Z,5.55
2018-08-20T10:20:24.079Z,6.53
2018-08-20T10:22:55.571Z,6.45
2018-08-20T10:25:27.187Z,6.00
2018-08-20T10:27:58.218Z,6.37
2018-08-20T10:30:29.847Z,6.65
2018-08-20T10:33:01.148Z,6.15
2018-08-20T10:35:32.402Z,6.05
2018-08-20T10:38:03.843Z,7.50
2018-08-20T10:40:35.359Z,6.20
2018-08-20T10:43:07.278Z,6.50
2018-08-20T10:45:43.538Z,6.72
2018-08-20T10:48:14.971Z,6.75
2018-08-20T10:50:46.193Z,7.45
2018-08-20T10:53:17.808Z,6.60
2018-08-20T10:55:49.829Z,6.40
2018-08-20T10:58:21.250Z,6.50
2018-08-20T11:00:52.912Z,6.42
2018-08-20T11:03:24.689Z,6.78
2018-08-20T11:05:56.010Z,6.90
2018-08-20T11:08:27.442Z,6.55
2018-08-20T11:10:58.857Z,6.40
2018-08-20T11:13:30.076Z,6.60
2018-08-20T11:16:01.552Z,6.62
2018-08-20T11:18:33.327Z,7.03
2018-08-20T11:21:04.735Z,6.92
2018-08-20T11:23:35.974Z,6.95
2018-08-20T11:26:07.238Z,6.87
2018-08-20T11:28:38.857Z,6.90
2018-08-20T11:31:10.385Z,6.75
2018-08-20T11:33:41.949Z,6.40
2018-08-20T11:36:13.130Z,6.60
2018-08-20T11:38:44.331Z,6.08
2018-08-20T11:41:15.870Z,6.40
2018-08-20T11:43:47.471Z,6.42
2018-08-20T11:46:18.837Z,6.00
2018-08-20T11:48:50.364Z,5.50
2018-08-20T11:51:21.802Z,5.67
2018-08-20T11:53:53.251Z,6.50
2018-08-20T11:56:24.626Z,6.53
2018-08-20T11:58:56.348Z,5.97
2018-08-20T12:01:27.557Z,5.28
2018-08-20T12:03:59.077Z,5.42
2018-08-20T12:06:30.742Z,5.10
2018-08-20T12:09:02.099Z,5.12
2018-08-20T12:11:33.438Z,5.40
2018-08-20T12:14:04.930Z,5.00
2018-08-20T12:16:37.159Z,5.20
2018-08-20T12:19:08.426Z,4.55
2018-08-20T12:21:40.163Z,4.60
2018-08-20T12:24:11.633Z,4.45
2018-08-20T12:26:42.793Z,4.37
2018-08-20T12:29:14.302Z,3.85
2018-08-20T12:31:45.766Z,4.40
2018-08-20T12:34:17.243Z,4.10
2018-08-20T12:36:48.613Z,4.90
2018-08-20T12:39:20.081Z,4.80
2018-08-20T12:41:51.537Z,4.45
2018-08-20T12:44:23.016Z,5.15
2018-08-20T12:46:54.640Z,6.28
2018-08-20T12:49:25.991Z,5.15
2018-08-20T12:51:57.567Z,5.55
2018-08-20T12:54:29.096Z,5.92
2018-08-20T12:57:00.355Z,5.42
2018-08-20T12:59:31.714Z,4.75
2018-08-20T13:02:03.373Z,5.55
2018-08-20T13:04:34.891Z,5.03
2018-08-20T13:07:06.566Z,4.42
2018-08-20T13:09:38.142Z,4.70
2018-08-20T13:12:09.880Z,4.80
2018-08-20T13:14:41.599Z,4.47
2018-08-20T13:17:12.956Z,6.50
2018-08-20T13:19:44.302Z,11.18
2018-08-20T13:22:15.677Z,11.30
2018-08-20T13:24:46.801Z,12.40
2018-08-20T13:27:18.176Z,7.42
2018-08-20T13:29:49.869Z,8.58
2018-08-20T13:32:21.271Z,12.20
2018-08-20T13:34:52.717Z,6.92
2018-08-20T13:37:24.245Z,7.33
2018-08-20T13:39:56.277Z,6.33
2018-08-20T13:42:27.786Z,6.72
2018-08-20T13:45:00.087Z,6.08
2018-08-20T13:47:31.452Z,7.30
2018-08-20T13:50:12.682Z,8.15
2018-08-20T13:52:45.784Z,11.25
2018-08-20T13:55:17.135Z,7.22
2018-08-20T13:57:49.879Z,4.65
2018-08-20T14:00:22.246Z,10.03
2018-08-20T14:02:53.919Z,7.30
2018-08-20T14:05:25.167Z,11.12
2018-08-20T14:07:56.762Z,10.55
2018-08-20T14:10:28.100Z,8.13
2018-08-20T14:12:59.810Z,5.70
2018-08-20T14:15:31.213Z,5.35
2018-08-20T14:18:02.645Z,4.80
2018-08-20T14:20:34.246Z,4.97
2018-08-20T14:23:05.782Z,5.47
2018-08-20T14:25:37.132Z,5.05
2018-08-20T14:28:09.034Z,5.17
2018-08-20T14:30:40.403Z,10.85
2018-08-20T14:33:11.881Z,4.95
2018-08-20T14:35:43.336Z,4.50
2018-08-20T14:38:14.508Z,4.87
2018-08-20T14:40:46.011Z,4.45
2018-08-20T14:43:17.176Z,4.65
2018-08-20T14:45:53.671Z,5.05
2018-08-20T14:48:25.403Z,4.35
2018-08-20T14:50:56.999Z,4.35
2018-08-20T14:53:28.417Z,4.95
2018-08-20T14:55:59.874Z,5.10
2018-08-20T14:58:31.419Z,4.67
2018-08-20T15:01:02.829Z,4.85
2018-08-20T15:03:34.906Z,4.12
2018-08-20T15:06:06.565Z,3.95
2018-08-20T15:08:39.802Z,4.75
2018-08-20T15:11:11.313Z,4.03
2018-08-20T15:13:42.949Z,4.00
2018-08-20T15:16:14.392Z,4.28
2018-08-20T15:18:45.877Z,3.90
2018-08-20T15:21:17.396Z,3.95
2018-08-20T15:23:48.641Z,4.50
2018-08-20T15:26:20.173Z,3.83
2018-08-20T15:28:51.392Z,3.70
2018-08-20T15:31:23.403Z,4.25
2018-08-20T15:33:55.170Z,4.47
2018-08-20T15:36:26.460Z,4.53
2018-08-20T15:38:58.228Z,3.90
2018-08-20T15:41:29.907Z,3.62
2018-08-20T15:44:01.640Z,3.77
2018-08-20T15:46:33.754Z,3.98
2018-08-20T15:49:05.666Z,4.80
2018-08-20T15:51:37.302Z,4.50
2018-08-20T15:54:08.930Z,5.97
2018-08-20T15:56:40.304Z,4.90
2018-08-20T15:59:11.632Z,7.10
2018-08-20T16:01:43.026Z,4.78
2018-08-20T16:04:15.303Z,4.50
2018-08-20T16:06:46.628Z,9.20
2018-08-20T16:09:18.367Z,14.90
2018-08-20T16:11:49.832Z,15.18
2018-08-20T16:14:21.396Z,7.62
2018-08-20T16:16:52.853Z,4.92
2018-08-20T16:19:24.176Z,6.00
2018-08-20T16:21:55.664Z,5.75
2018-08-20T16:24:27.680Z,4.40
2018-08-20T16:26:59.854Z,4.37
2018-08-20T16:29:31.294Z,4.08
2018-08-20T16:32:02.949Z,4.28
2018-08-20T16:34:34.404Z,4.65
2018-08-20T16:37:06.280Z,4.20
2018-08-20T16:39:37.854Z,9.13
2018-08-20T16:42:09.466Z,8.23
2018-08-20T16:44:40.888Z,5.35
2018-08-20T16:47:12.272Z,4.92
2018-08-20T16:49:45.077Z,8.33
2018-08-20T16:52:16.779Z,7.08
2018-08-20T16:54:48.266Z,4.40
2018-08-20T16:57:19.519Z,4.40
2018-08-20T17:07:31.434Z,4.72
2018-08-20T17:10:02.618Z,4.40
2018-08-20T17:12:34.252Z,4.75
2018-08-20T17:15:09.455Z,12.28
2018-08-20T17:17:41.080Z,11.57
2018-08-20T17:20:13.767Z,5.03
2018-08-20T17:22:45.275Z,4.80
2018-08-20T17:25:16.782Z,4.90
2018-08-20T17:27:53.705Z,4.70
2018-08-20T17:30:25.278Z,6.15
2018-08-20T17:32:56.515Z,6.40
2018-08-20T17:35:28.369Z,5.65
2018-08-20T17:38:05.596Z,5.37
2018-08-20T17:40:40.092Z,5.03
2018-08-20T17:43:11.525Z,4.53
2018-08-20T17:45:42.955Z,4.78
2018-08-20T17:48:20.761Z,4.72
2018-08-20T17:50:52.212Z,5.10
2018-08-20T17:53:23.759Z,4.72
2018-08-20T17:55:55.311Z,6.45
2018-08-20T17:58:26.714Z,6.10
2018-08-20T18:00:57.919Z,5.78
2018-08-20T18:03:30.250Z,4.87
2018-08-20T18:06:05.791Z,5.28
2018-08-20T18:08:37.347Z,5.25
2018-08-20T18:11:09.331Z,5.90
2018-08-20T18:13:51.225Z,6.15
2018-08-20T18:16:23.118Z,5.85
2018-08-20T18:18:54.943Z,5.75
2018-08-20T18:21:26.303Z,6.92
2018-08-20T18:23:57.768Z,5.85
2018-08-20T18:26:37.037Z,5.00
2018-08-20T18:29:10.863Z,7.30
2018-08-20T18:31:42.371Z,7.15
2018-08-20T18:34:13.863Z,5.72
2018-08-20T18:36:45.360Z,5.00
2018-08-20T18:39:16.798Z,6.17
2018-08-20T18:42:08.710Z,5.53
2018-08-20T18:44:40.099Z,5.50
2018-08-20T18:47:13.461Z,4.75
2018-08-20T18:49:51.748Z,4.72
2018-08-20T18:52:23.926Z,4.75
2018-08-20T18:54:56.343Z,5.80
2018-08-20T18:57:30.866Z,5.00
2018-08-20T19:00:04.563Z,5.90
2018-08-20T19:02:49.473Z,4.75
2018-08-20T19:05:21.413Z,5.05
2018-08-20T19:07:53.020Z,6.33
2018-08-20T19:10:29.109Z,6.92
2018-08-20T19:13:00.871Z,6.70
2018-08-20T19:15:42.148Z,5.97
2018-08-20T19:18:18.260Z,5.50
2018-08-20T19:20:49.569Z,5.20
2018-08-20T19:23:21.118Z,5.25
2018-08-20T19:25:52.566Z,6.40
2018-08-20T19:28:25.098Z,5.70
2018-08-20T19:30:56.904Z,5.87
2018-08-20T19:33:29.780Z,6.55
2018-08-20T19:36:01.499Z,5.17
2018-08-20T19:38:33.123Z,6.12
2018-08-20T19:41:09.542Z,6.78
2018-08-20T19:43:44.940Z,4.90
2018-08-20T19:46:28.901Z,5.62
2018-08-20T19:49:05.360Z,5.00
2018-08-20T19:51:38.841Z,5.03
2018-08-20T19:54:14.115Z,5.65
2018-08-20T19:56:45.482Z,5.72
2018-08-20T19:59:25.563Z,5.40
2018-08-20T20:01:57.655Z,5.40
2018-08-20T20:04:29.095Z,5.30
2018-08-20T20:07:00.546Z,4.60
2018-08-20T20:09:31.966Z,6.05
2018-08-20T20:12:03.600Z,5.40
2018-08-20T20:14:40.083Z,5.28
2018-08-20T20:17:11.423Z,4.78
2018-08-20T20:19:42.826Z,4.35
2018-08-20T20:22:17.076Z,5.17
2018-08-20T20:24:48.473Z,5.25
2018-08-20T20:27:20.320Z,5.55
2018-08-20T20:29:51.632Z,5.42
2018-08-20T20:32:23.320Z,4.72
2018-08-20T20:34:55.130Z,5.40
2018-08-20T20:37:26.525Z,5.45
2018-08-20T20:40:01.340Z,5.30
2018-08-20T20:42:32.886Z,5.03
2018-08-20T20:45:04.363Z,4.92
2018-08-20T20:47:35.823Z,5.10
2018-08-20T20:50:07.245Z,5.22
2018-08-20T20:52:38.810Z,5.55
2018-08-20T20:55:10.337Z,5.50
2018-08-20T20:57:41.823Z,6.03
2018-08-20T21:00:13.747Z,5.30
2018-08-20T21:02:45.335Z,5.40
2018-08-20T21:05:16.880Z,5.03
2018-08-20T21:07:49.535Z,5.60
2018-08-20T21:10:21.226Z,5.45
2018-08-20T21:12:52.726Z,5.10
2018-08-20T21:15:24.423Z,5.65
2018-08-20T21:17:56.076Z,5.35
2018-08-20T21:20:27.625Z,5.05
2018-08-20T21:22:58.966Z,5.42
2018-08-20T21:25:30.120Z,5.35
2018-08-20T21:28:01.663Z,5.10
2018-08-20T21:30:37.606Z,5.62
2018-08-20T21:33:09.342Z,5.30
2018-08-20T21:35:41.080Z,5.65
2018-08-20T21:38:12.439Z,5.55
2018-08-20T21:40:44.524Z,5.97
2018-08-20T21:43:15.895Z,5.53
2018-08-20T21:45:47.877Z,5.72
2018-08-20T21:48:19.390Z,6.03
2018-08-20T21:50:51.677Z,5.78
2018-08-20T21:53:28.075Z,5.80
2018-08-20T21:56:00.020Z,5.70
2018-08-20T21:58:31.280Z,5.60
2018-08-20T22:01:02.892Z,5.50
2018-08-20T22:03:34.127Z,5.30
2018-08-20T22:06:05.670Z,5.62
2018-08-20T22:08:37.439Z,5.40
2018-08-20T22:11:09.648Z,5.00
2018-08-20T22:13:40.896Z,5.22
2018-08-20T22:16:18.537Z,5.22
2018-08-20T22:18:58.465Z,4.97
2018-08-20T22:21:29.930Z,5.30
2018-08-20T22:24:02.956Z,5.42
2018-08-20T22:26:35.094Z,5.30
2018-08-20T22:29:06.576Z,5.85
2018-08-20T22:31:43.267Z,5.20
2018-08-20T22:34:14.708Z,5.80
2018-08-20T22:36:46.993Z,5.33
2018-08-20T22:39:18.239Z,5.65
2018-08-20T22:41:50.007Z,5.65
2018-08-20T22:44:21.651Z,5.47
2018-08-20T22:46:53.350Z,5.35
2018-08-20T22:49:24.853Z,5.35
2018-08-20T22:51:56.392Z,5.60
2018-08-20T22:54:28.208Z,5.35
2018-08-20T22:57:00.010Z,5.15
2018-08-20T22:59:31.597Z,5.67
2018-08-20T23:02:02.839Z,5.47
2018-08-20T23:04:34.364Z,5.78
2018-08-20T23:07:09.794Z,5.58
2018-08-20T23:09:41.567Z,5.12
2018-08-20T23:12:12.908Z,5.35
2018-08-20T23:14:44.383Z,5.28
2018-08-20T23:17:15.888Z,5.67
2018-08-20T23:19:47.181Z,5.10
2018-08-20T23:22:18.532Z,5.28
2018-08-20T23:24:57.208Z,5.30
2018-08-20T23:27:33.477Z,4.75
2018-08-20T23:30:05.373Z,4.97
2018-08-20T23:32:36.943Z,5.35
2018-08-20T23:35:08.421Z,4.80
2018-08-20T23:37:40.112Z,4.40
2018-08-20T23:40:11.541Z,4.90
2018-08-20T23:42:43.036Z,5.03
2018-08-20T23:45:14.556Z,4.90
2018-08-20T23:47:45.997Z,5.28
2018-08-20T23:50:17.285Z,5.20
2018-08-20T23:52:48.604Z,4.70
2018-08-20T23:55:19.881Z,4.65
2018-08-20T23:57:51.126Z,4.65
